sensor_id;sensor_type;location;lat;lon;timestamp;P1;P2;P0
70554;PMS5003;58104;52.744;15.242;2024-01-06T00:02:21;20;19;
70554;PMS5003;58104;52.744;15.242;2024-01-06T00:04:47;18;15;
70554;PMS5003;58104;52.744;15.242;2024-01-06T00:07:12;14;14;
70554;PMS5003;58104;52.744;15.242;2024-01-06T00:09:38;21;17;
70554;PMS5003;58104;52.744;15.242;2024-01-06T00:12:03;18;16;
70554;PMS5003;58104;52.744;15.242;2024-01-06T00:14:28;19;16;
70554;PMS5003;58104;52.744;15.242;2024-01-06T00:16:54;16;16;
70554;PMS5003;58104;52.744;15.242;2024-01-06T00:19:19;15;14;
70554;PMS5003;58104;52.744;15.242;2024-01-06T00:21:45;23;20;
70554;PMS5003;58104;52.744;15.242;2024-01-06T00:24:10;17;15;
70554;PMS5003;58104;52.744;15.242;2024-01-06T00:26:36;20;17;
70554;PMS5003;58104;52.744;15.242;2024-01-06T00:29:01;18;17;
70554;PMS5003;58104;52.744;15.242;2024-01-06T00:31:27;18;15;
70554;PMS5003;58104;52.744;15.242;2024-01-06T00:33:52;18;15;
70554;PMS5003;58104;52.744;15.242;2024-01-06T00:36:18;15;15;
70554;PMS5003;58104;52.744;15.242;2024-01-06T00:38:43;12;12;
70554;PMS5003;58104;52.744;15.242;2024-01-06T00:41:08;20;17;
70554;PMS5003;58104;52.744;15.242;2024-01-06T00:43:33;15;15;
70554;PMS5003;58104;52.744;15.242;2024-01-06T00:45:59;19;15;
70554;PMS5003;58104;52.744;15.242;2024-01-06T00:48:24;14;14;
70554;PMS5003;58104;52.744;15.242;2024-01-06T00:50:49;15;13;
70554;PMS5003;58104;52.744;15.242;2024-01-06T00:53:14;22;16;
70554;PMS5003;58104;52.744;15.242;2024-01-06T00:55:40;14;11;
70554;PMS5003;58104;52.744;15.242;2024-01-06T00:58:05;16;14;
70554;PMS5003;58104;52.744;15.242;2024-01-06T01:00:30;19;18;
70554;PMS5003;58104;52.744;15.242;2024-01-06T01:02:55;15;15;
70554;PMS5003;58104;52.744;15.242;2024-01-06T01:05:20;18;16;
70554;PMS5003;58104;52.744;15.242;2024-01-06T01:07:46;22;22;
70554;PMS5003;58104;52.744;15.242;2024-01-06T01:10:11;17;15;
70554;PMS5003;58104;52.744;15.242;2024-01-06T01:12:37;20;18;
70554;PMS5003;58104;52.744;15.242;2024-01-06T01:15:03;17;15;
70554;PMS5003;58104;52.744;15.242;2024-01-06T01:17:28;15;13;
70554;PMS5003;58104;52.744;15.242;2024-01-06T01:19:53;14;14;
70554;PMS5003;58104;52.744;15.242;2024-01-06T01:22:18;21;20;
70554;PMS5003;58104;52.744;15.242;2024-01-06T01:24:44;24;22;
70554;PMS5003;58104;52.744;15.242;2024-01-06T01:27:10;20;20;
70554;PMS5003;58104;52.744;15.242;2024-01-06T01:29:35;19;19;
70554;PMS5003;58104;52.744;15.242;2024-01-06T01:32:01;23;19;
70554;PMS5003;58104;52.744;15.242;2024-01-06T01:34:26;17;14;
70554;PMS5003;58104;52.744;15.242;2024-01-06T01:36:52;19;15;
70554;PMS5003;58104;52.744;15.242;2024-01-06T01:39:17;18;17;
70554;PMS5003;58104;52.744;15.242;2024-01-06T01:41:42;14;13;
70554;PMS5003;58104;52.744;15.242;2024-01-06T01:44:08;16;16;
70554;PMS5003;58104;52.744;15.242;2024-01-06T01:46:34;20;19;
70554;PMS5003;58104;52.744;15.242;2024-01-06T01:49:00;25;20;
70554;PMS5003;58104;52.744;15.242;2024-01-06T01:51:27;23;22;
70554;PMS5003;58104;52.744;15.242;2024-01-06T01:53:50;19;15;
70554;PMS5003;58104;52.744;15.242;2024-01-06T01:56:15;14;14;
70554;PMS5003;58104;52.744;15.242;2024-01-06T01:58:40;22;21;
70554;PMS5003;58104;52.744;15.242;2024-01-06T02:01:06;17;14;
70554;PMS5003;58104;52.744;15.242;2024-01-06T02:03:31;23;19;
70554;PMS5003;58104;52.744;15.242;2024-01-06T02:05:56;18;16;
70554;PMS5003;58104;52.744;15.242;2024-01-06T02:08:22;22;19;
70554;PMS5003;58104;52.744;15.242;2024-01-06T02:10:48;21;16;
70554;PMS5003;58104;52.744;15.242;2024-01-06T02:13:13;17;17;
70554;PMS5003;58104;52.744;15.242;2024-01-06T02:15:38;22;21;
70554;PMS5003;58104;52.744;15.242;2024-01-06T02:18:03;18;17;
70554;PMS5003;58104;52.744;15.242;2024-01-06T02:20:29;18;17;
70554;PMS5003;58104;52.744;15.242;2024-01-06T02:22:55;15;15;
70554;PMS5003;58104;52.744;15.242;2024-01-06T02:25:20;19;18;
70554;PMS5003;58104;52.744;15.242;2024-01-06T02:27:46;17;17;
70554;PMS5003;58104;52.744;15.242;2024-01-06T02:30:12;18;18;
70554;PMS5003;58104;52.744;15.242;2024-01-06T02:32:37;22;19;
70554;PMS5003;58104;52.744;15.242;2024-01-06T02:35:03;15;15;
70554;PMS5003;58104;52.744;15.242;2024-01-06T02:37:28;17;17;
70554;PMS5003;58104;52.744;15.242;2024-01-06T02:39:53;17;17;
70554;PMS5003;58104;52.744;15.242;2024-01-06T02:42:18;19;15;
70554;PMS5003;58104;52.744;15.242;2024-01-06T02:44:43;19;17;
70554;PMS5003;58104;52.744;15.242;2024-01-06T02:47:09;19;15;
70554;PMS5003;58104;52.744;15.242;2024-01-06T02:49:34;17;15;
70554;PMS5003;58104;52.744;15.242;2024-01-06T02:52:00;11;11;
70554;PMS5003;58104;52.744;15.242;2024-01-06T02:54:25;18;18;
70554;PMS5003;58104;52.744;15.242;2024-01-06T02:56:50;17;16;
70554;PMS5003;58104;52.744;15.242;2024-01-06T02:59:16;17;17;
70554;PMS5003;58104;52.744;15.242;2024-01-06T03:01:42;16;16;
70554;PMS5003;58104;52.744;15.242;2024-01-06T03:04:07;14;14;
70554;PMS5003;58104;52.744;15.242;2024-01-06T03:06:32;15;13;
70554;PMS5003;58104;52.744;15.242;2024-01-06T03:08:57;20;17;
70554;PMS5003;58104;52.744;15.242;2024-01-06T03:11:23;18;14;
70554;PMS5003;58104;52.744;15.242;2024-01-06T03:13:48;18;15;
70554;PMS5003;58104;52.744;15.242;2024-01-06T03:16:14;17;17;
70554;PMS5003;58104;52.744;15.242;2024-01-06T03:18:39;17;15;
70554;PMS5003;58104;52.744;15.242;2024-01-06T03:21:05;16;15;
70554;PMS5003;58104;52.744;15.242;2024-01-06T03:23:30;18;18;
70554;PMS5003;58104;52.744;15.242;2024-01-06T03:25:55;19;17;
70554;PMS5003;58104;52.744;15.242;2024-01-06T03:28:20;20;20;
70554;PMS5003;58104;52.744;15.242;2024-01-06T03:30:45;15;14;
70554;PMS5003;58104;52.744;15.242;2024-01-06T03:33:11;20;16;
70554;PMS5003;58104;52.744;15.242;2024-01-06T03:35:36;18;17;
70554;PMS5003;58104;52.744;15.242;2024-01-06T03:38:02;18;15;
70554;PMS5003;58104;52.744;15.242;2024-01-06T03:40:28;14;14;
70554;PMS5003;58104;52.744;15.242;2024-01-06T03:42:53;16;16;
70554;PMS5003;58104;52.744;15.242;2024-01-06T03:45:18;20;18;
70554;PMS5003;58104;52.744;15.242;2024-01-06T03:47:43;19;14;
70554;PMS5003;58104;52.744;15.242;2024-01-06T03:50:11;18;16;
70554;PMS5003;58104;52.744;15.242;2024-01-06T03:52:34;17;17;
70554;PMS5003;58104;52.744;15.242;2024-01-06T03:55:00;17;17;
70554;PMS5003;58104;52.744;15.242;2024-01-06T03:57:25;23;20;
70554;PMS5003;58104;52.744;15.242;2024-01-06T03:59:50;21;20;
70554;PMS5003;58104;52.744;15.242;2024-01-06T04:02:15;23;20;
70554;PMS5003;58104;52.744;15.242;2024-01-06T04:04:41;19;18;
70554;PMS5003;58104;52.744;15.242;2024-01-06T04:07:06;21;19;
70554;PMS5003;58104;52.744;15.242;2024-01-06T04:09:32;20;17;
70554;PMS5003;58104;52.744;15.242;2024-01-06T04:11:57;14;14;
70554;PMS5003;58104;52.744;15.242;2024-01-06T04:14:23;18;16;
70554;PMS5003;58104;52.744;15.242;2024-01-06T04:16:48;20;17;
70554;PMS5003;58104;52.744;15.242;2024-01-06T04:19:13;14;13;
70554;PMS5003;58104;52.744;15.242;2024-01-06T04:21:39;19;16;
70554;PMS5003;58104;52.744;15.242;2024-01-06T04:24:04;21;21;
70554;PMS5003;58104;52.744;15.242;2024-01-06T04:26:30;20;16;
70554;PMS5003;58104;52.744;15.242;2024-01-06T04:28:55;17;15;
70554;PMS5003;58104;52.744;15.242;2024-01-06T04:31:21;20;17;
70554;PMS5003;58104;52.744;15.242;2024-01-06T04:33:46;22;20;
70554;PMS5003;58104;52.744;15.242;2024-01-06T04:36:11;29;23;
70554;PMS5003;58104;52.744;15.242;2024-01-06T04:38:37;16;16;
70554;PMS5003;58104;52.744;15.242;2024-01-06T04:41:02;18;18;
70554;PMS5003;58104;52.744;15.242;2024-01-06T04:43:27;17;17;
70554;PMS5003;58104;52.744;15.242;2024-01-06T04:45:53;16;16;
70554;PMS5003;58104;52.744;15.242;2024-01-06T04:48:18;21;17;
70554;PMS5003;58104;52.744;15.242;2024-01-06T04:50:43;18;18;
70554;PMS5003;58104;52.744;15.242;2024-01-06T04:53:09;17;15;
70554;PMS5003;58104;52.744;15.242;2024-01-06T04:55:34;21;20;
70554;PMS5003;58104;52.744;15.242;2024-01-06T04:58:00;21;14;
70554;PMS5003;58104;52.744;15.242;2024-01-06T05:00:25;17;17;
70554;PMS5003;58104;52.744;15.242;2024-01-06T05:02:51;16;16;
70554;PMS5003;58104;52.744;15.242;2024-01-06T05:05:16;19;17;
70554;PMS5003;58104;52.744;15.242;2024-01-06T05:07:41;22;20;
70554;PMS5003;58104;52.744;15.242;2024-01-06T05:10:07;16;16;
70554;PMS5003;58104;52.744;15.242;2024-01-06T05:12:31;17;15;
70554;PMS5003;58104;52.744;15.242;2024-01-06T05:14:59;18;16;
70554;PMS5003;58104;52.744;15.242;2024-01-06T05:17:23;19;19;
70554;PMS5003;58104;52.744;15.242;2024-01-06T05:19:48;17;16;
70554;PMS5003;58104;52.744;15.242;2024-01-06T05:22:13;20;16;
70554;PMS5003;58104;52.744;15.242;2024-01-06T05:24:38;16;15;
70554;PMS5003;58104;52.744;15.242;2024-01-06T05:27:04;24;20;
70554;PMS5003;58104;52.744;15.242;2024-01-06T05:29:29;18;17;
70554;PMS5003;58104;52.744;15.242;2024-01-06T05:31:54;19;14;
70554;PMS5003;58104;52.744;15.242;2024-01-06T05:34:20;21;18;
70554;PMS5003;58104;52.744;15.242;2024-01-06T05:36:46;18;18;
70554;PMS5003;58104;52.744;15.242;2024-01-06T05:39:11;20;19;
70554;PMS5003;58104;52.744;15.242;2024-01-06T05:41:37;22;17;
70554;PMS5003;58104;52.744;15.242;2024-01-06T05:44:02;18;16;
70554;PMS5003;58104;52.744;15.242;2024-01-06T05:46:27;18;16;
70554;PMS5003;58104;52.744;15.242;2024-01-06T05:48:52;16;16;
70554;PMS5003;58104;52.744;15.242;2024-01-06T05:51:18;18;18;
70554;PMS5003;58104;52.744;15.242;2024-01-06T05:53:43;16;16;
70554;PMS5003;58104;52.744;15.242;2024-01-06T05:56:08;18;18;
70554;PMS5003;58104;52.744;15.242;2024-01-06T05:58:34;16;16;
70554;PMS5003;58104;52.744;15.242;2024-01-06T06:00:59;17;15;
70554;PMS5003;58104;52.744;15.242;2024-01-06T06:03:24;16;16;
70554;PMS5003;58104;52.744;15.242;2024-01-06T06:05:49;21;18;
70554;PMS5003;58104;52.744;15.242;2024-01-06T06:08:14;25;21;
70554;PMS5003;58104;52.744;15.242;2024-01-06T06:10:39;16;16;
70554;PMS5003;58104;52.744;15.242;2024-01-06T06:13:05;19;17;
70554;PMS5003;58104;52.744;15.242;2024-01-06T06:15:30;20;17;
70554;PMS5003;58104;52.744;15.242;2024-01-06T06:17:55;22;17;
70554;PMS5003;58104;52.744;15.242;2024-01-06T06:20:20;25;20;
70554;PMS5003;58104;52.744;15.242;2024-01-06T06:22:46;19;19;
70554;PMS5003;58104;52.744;15.242;2024-01-06T06:25:11;20;17;
70554;PMS5003;58104;52.744;15.242;2024-01-06T06:27:37;21;20;
70554;PMS5003;58104;52.744;15.242;2024-01-06T06:30:02;20;17;
70554;PMS5003;58104;52.744;15.242;2024-01-06T06:32:27;16;16;
70554;PMS5003;58104;52.744;15.242;2024-01-06T06:34:53;22;22;
70554;PMS5003;58104;52.744;15.242;2024-01-06T06:37:18;21;16;
70554;PMS5003;58104;52.744;15.242;2024-01-06T06:39:44;16;14;
70554;PMS5003;58104;52.744;15.242;2024-01-06T06:42:09;19;17;
70554;PMS5003;58104;52.744;15.242;2024-01-06T06:44:34;17;16;
70554;PMS5003;58104;52.744;15.242;2024-01-06T06:47:00;17;17;
70554;PMS5003;58104;52.744;15.242;2024-01-06T06:49:25;19;18;
70554;PMS5003;58104;52.744;15.242;2024-01-06T06:51:51;19;15;
70554;PMS5003;58104;52.744;15.242;2024-01-06T06:54:17;25;21;
70554;PMS5003;58104;52.744;15.242;2024-01-06T06:56:42;20;20;
70554;PMS5003;58104;52.744;15.242;2024-01-06T06:59:07;16;16;
70554;PMS5003;58104;52.744;15.242;2024-01-06T07:01:32;16;14;
70554;PMS5003;58104;52.744;15.242;2024-01-06T07:03:58;15;14;
70554;PMS5003;58104;52.744;15.242;2024-01-06T07:06:23;21;20;
70554;PMS5003;58104;52.744;15.242;2024-01-06T07:08:49;17;17;
70554;PMS5003;58104;52.744;15.242;2024-01-06T07:11:15;23;23;
70554;PMS5003;58104;52.744;15.242;2024-01-06T07:13:40;21;19;
70554;PMS5003;58104;52.744;15.242;2024-01-06T07:16:07;19;18;
70554;PMS5003;58104;52.744;15.242;2024-01-06T07:18:32;20;18;
70554;PMS5003;58104;52.744;15.242;2024-01-06T07:20:57;16;15;
70554;PMS5003;58104;52.744;15.242;2024-01-06T07:23:23;16;16;
70554;PMS5003;58104;52.744;15.242;2024-01-06T07:25:48;15;14;
70554;PMS5003;58104;52.744;15.242;2024-01-06T07:28:13;17;17;
70554;PMS5003;58104;52.744;15.242;2024-01-06T07:30:39;18;17;
70554;PMS5003;58104;52.744;15.242;2024-01-06T07:33:04;21;21;
70554;PMS5003;58104;52.744;15.242;2024-01-06T07:35:30;20;18;
70554;PMS5003;58104;52.744;15.242;2024-01-06T07:37:56;21;18;
70554;PMS5003;58104;52.744;15.242;2024-01-06T07:40:21;17;16;
70554;PMS5003;58104;52.744;15.242;2024-01-06T07:42:46;22;18;
70554;PMS5003;58104;52.744;15.242;2024-01-06T07:45:12;19;19;
70554;PMS5003;58104;52.744;15.242;2024-01-06T07:47:37;17;15;
70554;PMS5003;58104;52.744;15.242;2024-01-06T07:50:03;17;16;
70554;PMS5003;58104;52.744;15.242;2024-01-06T07:52:29;17;16;
70554;PMS5003;58104;52.744;15.242;2024-01-06T07:54:53;20;18;
70554;PMS5003;58104;52.744;15.242;2024-01-06T07:57:19;18;18;
70554;PMS5003;58104;52.744;15.242;2024-01-06T07:59:45;19;19;
70554;PMS5003;58104;52.744;15.242;2024-01-06T08:02:09;16;15;
70554;PMS5003;58104;52.744;15.242;2024-01-06T08:04:35;20;20;
70554;PMS5003;58104;52.744;15.242;2024-01-06T08:07:01;22;19;
70554;PMS5003;58104;52.744;15.242;2024-01-06T08:09:26;22;20;
70554;PMS5003;58104;52.744;15.242;2024-01-06T08:11:52;22;16;
70554;PMS5003;58104;52.744;15.242;2024-01-06T08:14:17;18;17;
70554;PMS5003;58104;52.744;15.242;2024-01-06T08:16:43;23;20;
70554;PMS5003;58104;52.744;15.242;2024-01-06T08:19:09;20;19;
70554;PMS5003;58104;52.744;15.242;2024-01-06T08:21:34;25;25;
70554;PMS5003;58104;52.744;15.242;2024-01-06T08:24:00;24;22;
70554;PMS5003;58104;52.744;15.242;2024-01-06T08:26:25;28;25;
70554;PMS5003;58104;52.744;15.242;2024-01-06T08:28:51;27;25;
70554;PMS5003;58104;52.744;15.242;2024-01-06T08:31:16;29;29;
70554;PMS5003;58104;52.744;15.242;2024-01-06T08:33:42;24;24;
70554;PMS5003;58104;52.744;15.242;2024-01-06T08:36:07;28;25;
70554;PMS5003;58104;52.744;15.242;2024-01-06T08:38:33;25;25;
70554;PMS5003;58104;52.744;15.242;2024-01-06T08:40:58;33;29;
70554;PMS5003;58104;52.744;15.242;2024-01-06T08:43:24;29;27;
70554;PMS5003;58104;52.744;15.242;2024-01-06T08:45:49;24;23;
70554;PMS5003;58104;52.744;15.242;2024-01-06T08:48:15;31;29;
70554;PMS5003;58104;52.744;15.242;2024-01-06T08:50:40;27;24;
70554;PMS5003;58104;52.744;15.242;2024-01-06T08:53:09;28;23;
70554;PMS5003;58104;52.744;15.242;2024-01-06T08:55:32;36;34;
70554;PMS5003;58104;52.744;15.242;2024-01-06T08:57:58;42;38;
70554;PMS5003;58104;52.744;15.242;2024-01-06T09:00:23;37;33;
70554;PMS5003;58104;52.744;15.242;2024-01-06T09:02:48;38;33;
70554;PMS5003;58104;52.744;15.242;2024-01-06T09:05:14;34;30;
70554;PMS5003;58104;52.744;15.242;2024-01-06T09:07:39;34;30;
70554;PMS5003;58104;52.744;15.242;2024-01-06T09:10:04;30;28;
70554;PMS5003;58104;52.744;15.242;2024-01-06T09:12:30;31;29;
70554;PMS5003;58104;52.744;15.242;2024-01-06T09:14:55;35;31;
70554;PMS5003;58104;52.744;15.242;2024-01-06T09:17:21;37;31;
70554;PMS5003;58104;52.744;15.242;2024-01-06T09:19:46;31;31;
70554;PMS5003;58104;52.744;15.242;2024-01-06T09:22:12;27;27;
70554;PMS5003;58104;52.744;15.242;2024-01-06T09:24:37;32;30;
70554;PMS5003;58104;52.744;15.242;2024-01-06T09:27:03;41;33;
70554;PMS5003;58104;52.744;15.242;2024-01-06T09:29:28;27;27;
70554;PMS5003;58104;52.744;15.242;2024-01-06T09:31:53;33;27;
70554;PMS5003;58104;52.744;15.242;2024-01-06T09:34:19;30;29;
70554;PMS5003;58104;52.744;15.242;2024-01-06T09:36:44;32;32;
70554;PMS5003;58104;52.744;15.242;2024-01-06T09:39:10;29;29;
70554;PMS5003;58104;52.744;15.242;2024-01-06T09:41:35;34;27;
70554;PMS5003;58104;52.744;15.242;2024-01-06T09:44:00;29;28;
70554;PMS5003;58104;52.744;15.242;2024-01-06T09:46:26;35;28;
70554;PMS5003;58104;52.744;15.242;2024-01-06T09:48:50;35;33;
70554;PMS5003;58104;52.744;15.242;2024-01-06T09:51:16;33;29;
70554;PMS5003;58104;52.744;15.242;2024-01-06T09:53:45;31;28;
70554;PMS5003;58104;52.744;15.242;2024-01-06T09:56:07;31;28;
70554;PMS5003;58104;52.744;15.242;2024-01-06T09:58:32;36;28;
70554;PMS5003;58104;52.744;15.242;2024-01-06T10:00:58;34;32;
70554;PMS5003;58104;52.744;15.242;2024-01-06T10:03:23;41;36;
70554;PMS5003;58104;52.744;15.242;2024-01-06T10:05:48;48;36;
70554;PMS5003;58104;52.744;15.242;2024-01-06T10:08:15;35;31;
70554;PMS5003;58104;52.744;15.242;2024-01-06T10:10:39;37;34;
70554;PMS5003;58104;52.744;15.242;2024-01-06T10:13:05;35;32;
70554;PMS5003;58104;52.744;15.242;2024-01-06T10:15:30;35;32;
70554;PMS5003;58104;52.744;15.242;2024-01-06T10:17:55;44;41;
70554;PMS5003;58104;52.744;15.242;2024-01-06T10:20:21;38;33;
70554;PMS5003;58104;52.744;15.242;2024-01-06T10:22:46;34;30;
70554;PMS5003;58104;52.744;15.242;2024-01-06T10:25:12;37;36;
70554;PMS5003;58104;52.744;15.242;2024-01-06T10:27:37;43;35;
70554;PMS5003;58104;52.744;15.242;2024-01-06T10:30:03;35;35;
70554;PMS5003;58104;52.744;15.242;2024-01-06T10:32:30;41;32;
70554;PMS5003;58104;52.744;15.242;2024-01-06T10:34:53;36;35;
70554;PMS5003;58104;52.744;15.242;2024-01-06T10:37:18;34;29;
70554;PMS5003;58104;52.744;15.242;2024-01-06T10:39:44;34;31;
70554;PMS5003;58104;52.744;15.242;2024-01-06T10:42:10;31;28;
70554;PMS5003;58104;52.744;15.242;2024-01-06T10:44:34;31;31;
70554;PMS5003;58104;52.744;15.242;2024-01-06T10:47:00;36;32;
70554;PMS5003;58104;52.744;15.242;2024-01-06T10:49:25;37;35;
70554;PMS5003;58104;52.744;15.242;2024-01-06T10:51:51;35;33;
70554;PMS5003;58104;52.744;15.242;2024-01-06T10:54:16;35;32;
70554;PMS5003;58104;52.744;15.242;2024-01-06T10:56:41;32;29;
70554;PMS5003;58104;52.744;15.242;2024-01-06T10:59:07;39;35;
70554;PMS5003;58104;52.744;15.242;2024-01-06T11:01:33;33;29;
70554;PMS5003;58104;52.744;15.242;2024-01-06T11:03:58;32;30;
70554;PMS5003;58104;52.744;15.242;2024-01-06T11:06:23;29;25;
70554;PMS5003;58104;52.744;15.242;2024-01-06T11:08:50;31;25;
70554;PMS5003;58104;52.744;15.242;2024-01-06T11:11:15;26;22;
70554;PMS5003;58104;52.744;15.242;2024-01-06T11:13:39;27;25;
70554;PMS5003;58104;52.744;15.242;2024-01-06T11:16:05;28;24;
70554;PMS5003;58104;52.744;15.242;2024-01-06T11:18:31;20;19;
70554;PMS5003;58104;52.744;15.242;2024-01-06T11:23:22;23;23;
70554;PMS5003;58104;52.744;15.242;2024-01-06T11:25:47;25;22;
70554;PMS5003;58104;52.744;15.242;2024-01-06T11:28:12;23;20;
70554;PMS5003;58104;52.744;15.242;2024-01-06T11:30:38;21;15;
70554;PMS5003;58104;52.744;15.242;2024-01-06T11:33:03;22;20;
70554;PMS5003;58104;52.744;15.242;2024-01-06T11:35:29;26;23;
70554;PMS5003;58104;52.744;15.242;2024-01-06T11:37:55;26;26;
70554;PMS5003;58104;52.744;15.242;2024-01-06T11:40:23;27;22;
70554;PMS5003;58104;52.744;15.242;2024-01-06T11:42:46;23;20;
70554;PMS5003;58104;52.744;15.242;2024-01-06T11:45:11;29;24;
70554;PMS5003;58104;52.744;15.242;2024-01-06T11:47:36;24;23;
70554;PMS5003;58104;52.744;15.242;2024-01-06T11:50:02;16;15;
70554;PMS5003;58104;52.744;15.242;2024-01-06T11:52:27;18;18;
70554;PMS5003;58104;52.744;15.242;2024-01-06T11:54:52;19;16;
70554;PMS5003;58104;52.744;15.242;2024-01-06T11:57:18;23;21;
70554;PMS5003;58104;52.744;15.242;2024-01-06T11:59:44;18;18;
70554;PMS5003;58104;52.744;15.242;2024-01-06T12:02:10;27;23;
70554;PMS5003;58104;52.744;15.242;2024-01-06T12:04:35;27;21;
70554;PMS5003;58104;52.744;15.242;2024-01-06T12:07:05;15;13;
70554;PMS5003;58104;52.744;15.242;2024-01-06T12:09:25;18;17;
70554;PMS5003;58104;52.744;15.242;2024-01-06T12:14:17;15;15;
70554;PMS5003;58104;52.744;15.242;2024-01-06T12:16:42;15;15;
70554;PMS5003;58104;52.744;15.242;2024-01-06T12:19:07;24;18;
70554;PMS5003;58104;52.744;15.242;2024-01-06T12:21:32;24;23;
70554;PMS5003;58104;52.744;15.242;2024-01-06T12:26:23;19;17;
70554;PMS5003;58104;52.744;15.242;2024-01-06T12:28:49;17;14;
70554;PMS5003;58104;52.744;15.242;2024-01-06T12:31:17;20;20;
70554;PMS5003;58104;52.744;15.242;2024-01-06T12:33:40;17;17;
70554;PMS5003;58104;52.744;15.242;2024-01-06T12:38:30;17;16;
70554;PMS5003;58104;52.744;15.242;2024-01-06T12:40:56;19;15;
70554;PMS5003;58104;52.744;15.242;2024-01-06T12:43:21;21;17;
70554;PMS5003;58104;52.744;15.242;2024-01-06T12:45:46;19;17;
70554;PMS5003;58104;52.744;15.242;2024-01-06T12:48:11;23;17;
70554;PMS5003;58104;52.744;15.242;2024-01-06T12:50:37;17;16;
70554;PMS5003;58104;52.744;15.242;2024-01-06T12:53:03;17;16;
70554;PMS5003;58104;52.744;15.242;2024-01-06T12:55:28;19;13;
70554;PMS5003;58104;52.744;15.242;2024-01-06T12:57:53;17;16;
70554;PMS5003;58104;52.744;15.242;2024-01-06T13:00:19;14;13;
70554;PMS5003;58104;52.744;15.242;2024-01-06T13:02:45;14;14;
70554;PMS5003;58104;52.744;15.242;2024-01-06T13:05:11;16;15;
70554;PMS5003;58104;52.744;15.242;2024-01-06T13:07:36;15;15;
70554;PMS5003;58104;52.744;15.242;2024-01-06T13:10:01;23;17;
70554;PMS5003;58104;52.744;15.242;2024-01-06T13:12:26;14;14;
70554;PMS5003;58104;52.744;15.242;2024-01-06T13:14:52;21;16;
70554;PMS5003;58104;52.744;15.242;2024-01-06T13:17:17;17;15;
70554;PMS5003;58104;52.744;15.242;2024-01-06T13:19:43;18;16;
70554;PMS5003;58104;52.744;15.242;2024-01-06T13:22:08;15;13;
70554;PMS5003;58104;52.744;15.242;2024-01-06T13:24:33;20;15;
70554;PMS5003;58104;52.744;15.242;2024-01-06T13:26:58;14;13;
70554;PMS5003;58104;52.744;15.242;2024-01-06T13:29:24;15;15;
70554;PMS5003;58104;52.744;15.242;2024-01-06T13:31:49;13;11;
70554;PMS5003;58104;52.744;15.242;2024-01-06T13:34:15;18;14;
70554;PMS5003;58104;52.744;15.242;2024-01-06T13:36:40;19;14;
70554;PMS5003;58104;52.744;15.242;2024-01-06T13:39:05;13;11;
70554;PMS5003;58104;52.744;15.242;2024-01-06T13:41:31;16;16;
70554;PMS5003;58104;52.744;15.242;2024-01-06T13:43:56;11;11;
70554;PMS5003;58104;52.744;15.242;2024-01-06T13:46:21;16;13;
70554;PMS5003;58104;52.744;15.242;2024-01-06T13:48:47;11;11;
70554;PMS5003;58104;52.744;15.242;2024-01-06T13:51:12;17;13;
70554;PMS5003;58104;52.744;15.242;2024-01-06T13:53:38;18;15;
70554;PMS5003;58104;52.744;15.242;2024-01-06T13:56:04;20;19;
70554;PMS5003;58104;52.744;15.242;2024-01-06T13:58:29;16;14;
70554;PMS5003;58104;52.744;15.242;2024-01-06T14:00:54;20;17;
70554;PMS5003;58104;52.744;15.242;2024-01-06T14:03:19;19;19;
70554;PMS5003;58104;52.744;15.242;2024-01-06T14:05:45;14;14;
70554;PMS5003;58104;52.744;15.242;2024-01-06T14:08:11;14;13;
70554;PMS5003;58104;52.744;15.242;2024-01-06T14:10:36;17;14;
70554;PMS5003;58104;52.744;15.242;2024-01-06T14:13:01;13;13;
70554;PMS5003;58104;52.744;15.242;2024-01-06T14:15:26;19;17;
70554;PMS5003;58104;52.744;15.242;2024-01-06T14:17:52;15;13;
70554;PMS5003;58104;52.744;15.242;2024-01-06T14:20:17;18;17;
70554;PMS5003;58104;52.744;15.242;2024-01-06T14:22:42;16;13;
70554;PMS5003;58104;52.744;15.242;2024-01-06T14:25:07;20;14;
70554;PMS5003;58104;52.744;15.242;2024-01-06T14:27:33;21;18;
70554;PMS5003;58104;52.744;15.242;2024-01-06T14:29:59;19;18;
70554;PMS5003;58104;52.744;15.242;2024-01-06T14:32:24;18;13;
70554;PMS5003;58104;52.744;15.242;2024-01-06T14:34:49;14;14;
70554;PMS5003;58104;52.744;15.242;2024-01-06T14:37:15;14;11;
70554;PMS5003;58104;52.744;15.242;2024-01-06T14:39:40;20;14;
70554;PMS5003;58104;52.744;15.242;2024-01-06T14:42:06;16;16;
70554;PMS5003;58104;52.744;15.242;2024-01-06T14:44:32;18;15;
70554;PMS5003;58104;52.744;15.242;2024-01-06T14:46:57;11;9;
70554;PMS5003;58104;52.744;15.242;2024-01-06T14:49:23;19;16;
70554;PMS5003;58104;52.744;15.242;2024-01-06T14:51:48;24;22;
70554;PMS5003;58104;52.744;15.242;2024-01-06T14:54:13;15;14;
70554;PMS5003;58104;52.744;15.242;2024-01-06T14:56:39;12;12;
70554;PMS5003;58104;52.744;15.242;2024-01-06T14:59:04;17;15;
70554;PMS5003;58104;52.744;15.242;2024-01-06T15:01:30;18;16;
70554;PMS5003;58104;52.744;15.242;2024-01-06T15:03:55;16;13;
70554;PMS5003;58104;52.744;15.242;2024-01-06T15:06:20;14;14;
70554;PMS5003;58104;52.744;15.242;2024-01-06T15:08:48;15;13;
70554;PMS5003;58104;52.744;15.242;2024-01-06T15:11:11;15;13;
70554;PMS5003;58104;52.744;15.242;2024-01-06T15:13:36;15;14;
70554;PMS5003;58104;52.744;15.242;2024-01-06T15:16:02;17;15;
70554;PMS5003;58104;52.744;15.242;2024-01-06T15:18:28;19;15;
70554;PMS5003;58104;52.744;15.242;2024-01-06T15:20:53;14;14;
70554;PMS5003;58104;52.744;15.242;2024-01-06T15:23:19;14;14;
70554;PMS5003;58104;52.744;15.242;2024-01-06T15:25:44;12;12;
70554;PMS5003;58104;52.744;15.242;2024-01-06T15:28:10;19;16;
70554;PMS5003;58104;52.744;15.242;2024-01-06T15:30:35;12;11;
70554;PMS5003;58104;52.744;15.242;2024-01-06T15:33:01;13;12;
70554;PMS5003;58104;52.744;15.242;2024-01-06T15:35:26;14;13;
70554;PMS5003;58104;52.744;15.242;2024-01-06T15:37:51;11;11;
70554;PMS5003;58104;52.744;15.242;2024-01-06T15:40:16;14;14;
70554;PMS5003;58104;52.744;15.242;2024-01-06T15:42:42;13;12;
70554;PMS5003;58104;52.744;15.242;2024-01-06T15:45:08;13;11;
70554;PMS5003;58104;52.744;15.242;2024-01-06T15:47:33;17;14;
70554;PMS5003;58104;52.744;15.242;2024-01-06T15:49:58;15;13;
70554;PMS5003;58104;52.744;15.242;2024-01-06T15:52:24;16;16;
70554;PMS5003;58104;52.744;15.242;2024-01-06T15:54:49;18;11;
70554;PMS5003;58104;52.744;15.242;2024-01-06T15:57:14;16;15;
70554;PMS5003;58104;52.744;15.242;2024-01-06T15:59:39;13;12;